Time;durP1;ratioP1;P1;durP2;ratioP2;P2;SDS_P1;SDS_P2;PMS_P1;PMS_P2;Temp;Humidity;BMP_temperature;BMP_pressure;BME280_temperature;BME280_humidity;BME280_pressure;Samples;Min_cycle;Max_cycle;Signal;HPM_P1;HPM_P2
2022/01/11 00:01:49;;;;;;;16.70;7.00;;;0.40;99.90;;;;;;4986196;28;20229;-73
2022/01/11 00:04:17;;;;;;;14.60;7.20;;;0.10;99.90;;;;;;4979948;28;20205;-72
2022/01/11 00:06:50;;;;;;;14.03;7.03;;;0.10;99.90;;;;;;4986826;28;20204;-72
2022/01/11 00:09:29;;;;;;;13.37;6.87;;;0.10;99.90;;;;;;4984672;28;20216;-72
2022/01/11 00:11:56;;;;;;;13.80;6.53;;;-0.10;99.90;;;;;;4986151;28;20212;-72
2022/01/11 00:14:22;;;;;;;11.07;5.77;;;-0.20;99.90;;;;;;4978256;28;20245;-72
2022/01/11 00:16:49;;;;;;;12.80;6.27;;;-0.20;99.90;;;;;;4989163;28;20189;-72
2022/01/11 00:19:16;;;;;;;11.70;5.57;;;-0.30;99.90;;;;;;4982068;28;20205;-73
2022/01/11 00:21:48;;;;;;;11.20;6.07;;;-0.30;99.90;;;;;;4981779;28;20208;-73
2022/01/11 00:24:33;;;;;;;10.47;4.67;;;-0.20;99.90;;;;;;4985025;28;20201;-72
2022/01/11 00:27:01;;;;;;;11.57;5.10;;;-0.30;99.90;;;;;;4988609;28;20203;-72
2022/01/11 00:29:29;;;;;;;10.37;5.23;;;-0.30;99.90;;;;;;4984126;28;20204;-72
2022/01/11 00:32:00;;;;;;;10.10;5.23;;;-0.40;99.90;;;;;;4979641;28;20219;-72
2022/01/11 00:34:38;;;;;;;9.13;4.97;;;-0.40;99.90;;;;;;4992157;28;20270;-74
2022/01/11 00:37:05;;;;;;;8.90;4.60;;;-0.40;99.90;;;;;;4986656;28;20201;-72
2022/01/11 00:39:33;;;;;;;11.60;5.10;;;-0.50;99.90;;;;;;4983295;28;20666;-72
2022/01/11 00:41:59;;;;;;;13.53;5.67;;;-0.50;99.90;;;;;;4990223;28;20201;-74
2022/01/11 00:44:26;;;;;;;11.17;4.97;;;-0.50;99.90;;;;;;4990153;28;20212;-72
2022/01/11 00:46:53;;;;;;;14.47;5.50;;;-0.50;99.90;;;;;;4991613;28;20204;-73
2022/01/11 00:49:20;;;;;;;9.43;5.40;;;-0.50;99.90;;;;;;4990762;28;20276;-73
2022/01/11 00:51:46;;;;;;;11.17;4.60;;;-0.50;99.90;;;;;;4979783;28;20228;-72
2022/01/11 00:54:13;;;;;;;9.57;4.40;;;-0.50;99.90;;;;;;4976062;28;20213;-72
2022/01/11 00:56:40;;;;;;;10.67;4.47;;;-0.30;99.90;;;;;;4989328;28;20706;-73
2022/01/11 00:59:06;;;;;;;8.37;3.87;;;-0.10;99.90;;;;;;4986758;28;20239;-74
2022/01/11 01:01:37;;;;;;;9.27;4.47;;;-0.20;99.90;;;;;;4984703;28;20204;-73
2022/01/11 01:04:06;;;;;;;10.83;4.87;;;-0.30;99.90;;;;;;4992459;28;20575;-73
2022/01/11 01:06:33;;;;;;;7.50;4.00;;;-0.40;99.90;;;;;;4989719;28;20197;-69
2022/01/11 01:09:00;;;;;;;11.77;4.70;;;-0.40;99.90;;;;;;4989608;28;20203;-72
2022/01/11 01:11:27;;;;;;;9.20;5.03;;;-0.50;99.90;;;;;;4987162;28;20221;-72
2022/01/11 01:13:54;;;;;;;10.33;4.90;;;-0.40;99.90;;;;;;4989450;28;20192;-71
2022/01/11 01:16:21;;;;;;;13.83;5.40;;;-0.30;99.90;;;;;;4988407;28;20217;-72
2022/01/11 01:18:48;;;;;;;10.57;4.97;;;-0.20;99.90;;;;;;4991529;28;20217;-73
2022/01/11 01:21:15;;;;;;;8.37;4.87;;;-0.10;99.90;;;;;;4984182;28;20201;-73
2022/01/11 01:23:42;;;;;;;11.57;5.77;;;-0.20;99.90;;;;;;4990059;28;20197;-72
2022/01/11 01:26:09;;;;;;;11.87;6.43;;;-0.20;99.90;;;;;;4988289;28;20245;-73
2022/01/11 01:28:35;;;;;;;10.03;5.20;;;-0.10;99.90;;;;;;4989936;28;20217;-71
2022/01/11 01:31:02;;;;;;;12.33;5.97;;;0.10;99.90;;;;;;4990113;28;20271;-72
2022/01/11 01:33:31;;;;;;;15.93;6.50;;;0.00;99.90;;;;;;4990065;28;20204;-72
2022/01/11 01:36:03;;;;;;;15.53;6.20;;;0.10;99.90;;;;;;4985682;28;20220;-72
2022/01/11 01:38:32;;;;;;;17.23;6.23;;;0.30;99.90;;;;;;4977055;28;20690;-72
2022/01/11 01:41:09;;;;;;;12.03;5.43;;;0.40;99.90;;;;;;4982082;28;20196;-74
2022/01/11 01:43:36;;;;;;;11.30;5.63;;;0.40;99.90;;;;;;4987637;28;20189;-72
2022/01/11 01:46:03;;;;;;;17.83;6.93;;;0.40;99.90;;;;;;4989525;28;20217;-72
2022/01/11 01:48:30;;;;;;;12.30;6.07;;;0.50;99.90;;;;;;4990682;28;20190;-72
2022/01/11 01:50:57;;;;;;;13.70;6.03;;;0.50;99.90;;;;;;4989231;28;20191;-72
2022/01/11 01:53:25;;;;;;;14.13;6.20;;;0.40;99.90;;;;;;4990760;28;20200;-74
2022/01/11 01:55:52;;;;;;;11.97;6.20;;;0.40;99.90;;;;;;4987436;28;20208;-72
2022/01/11 01:58:20;;;;;;;12.53;6.40;;;0.10;99.90;;;;;;4987581;28;20193;-72
2022/01/11 02:00:53;;;;;;;13.90;6.07;;;0.20;99.90;;;;;;4984989;28;20209;-72
2022/01/11 02:03:26;;;;;;;15.40;6.43;;;0.10;99.90;;;;;;4986026;28;20209;-73
2022/01/11 02:05:55;;;;;;;11.53;5.50;;;0.20;99.90;;;;;;4987967;28;20716;-72
2022/01/11 02:08:22;;;;;;;12.23;5.50;;;0.20;99.90;;;;;;4987569;28;20200;-73
2022/01/11 02:10:49;;;;;;;10.63;5.60;;;0.40;99.90;;;;;;4990975;28;20201;-72
2022/01/11 02:13:16;;;;;;;13.87;5.80;;;0.40;99.90;;;;;;4989562;28;20552;-72
2022/01/11 02:15:42;;;;;;;11.63;5.83;;;0.30;99.90;;;;;;4983512;28;20225;-72
2022/01/11 02:18:20;;;;;;;10.40;5.00;;;0.30;99.90;;;;;;4984918;28;20197;-72
2022/01/11 02:20:50;;;;;;;16.27;6.67;;;0.30;99.90;;;;;;4988044;28;20641;-73
2022/01/11 02:23:19;;;;;;;13.97;6.43;;;0.30;99.90;;;;;;4985954;28;20666;-72
2022/01/11 02:25:46;;;;;;;11.87;6.10;;;0.30;99.90;;;;;;4988135;28;20226;-72
2022/01/11 02:28:16;;;;;;;13.07;6.20;;;0.40;99.90;;;;;;4983624;28;20265;-74
2022/01/11 02:30:43;;;;;;;12.80;6.20;;;0.30;99.90;;;;;;4986312;28;20216;-73
2022/01/11 02:33:32;;;;;;;13.73;5.83;;;0.20;99.90;;;;;;4982245;28;20278;-73
2022/01/11 02:36:00;;;;;;;9.57;5.50;;;0.10;99.90;;;;;;4983670;28;20209;-72
2022/01/11 02:38:26;;;;;;;13.20;6.40;;;0.10;99.90;;;;;;4978166;28;20670;-72
2022/01/11 02:40:53;;;;;;;9.77;5.80;;;0.30;99.90;;;;;;4987155;28;20197;-75
2022/01/11 02:43:19;;;;;;;14.30;6.23;;;0.20;99.90;;;;;;4990260;28;20259;-72
2022/01/11 02:45:46;;;;;;;12.97;6.33;;;0.20;99.90;;;;;;4985042;28;20249;-72
2022/01/11 02:48:13;;;;;;;12.00;6.63;;;0.00;99.90;;;;;;4990172;28;20201;-73
2022/01/11 02:50:40;;;;;;;13.57;6.67;;;0.10;99.90;;;;;;4985611;28;20665;-73
2022/01/11 02:53:08;;;;;;;15.87;7.10;;;0.10;99.90;;;;;;4984917;28;20792;-72
2022/01/11 02:55:37;;;;;;;16.50;7.63;;;0.30;99.90;;;;;;4982979;28;20216;-72
2022/01/11 02:58:04;;;;;;;21.10;9.07;;;0.40;99.90;;;;;;4988719;28;20716;-72
2022/01/11 03:00:31;;;;;;;21.73;9.07;;;0.40;99.90;;;;;;4981695;28;20206;-72
2022/01/11 03:03:23;;;;;;;24.03;10.37;;;0.60;99.90;;;;;;4985943;28;20222;-72
2022/01/11 03:05:56;;;;;;;20.13;8.90;;;0.70;99.90;;;;;;4981420;28;20223;-73
2022/01/11 03:08:26;;;;;;;22.57;9.97;;;0.70;99.90;;;;;;4990031;28;20197;-72
2022/01/11 03:10:53;;;;;;;18.50;8.63;;;0.60;99.90;;;;;;4980598;28;20197;-72
2022/01/11 03:13:20;;;;;;;24.53;9.27;;;0.70;99.90;;;;;;4984042;28;20240;-72
2022/01/11 03:15:49;;;;;;;50.37;11.60;;;0.80;99.90;;;;;;4977868;28;20265;-71
2022/01/11 03:18:15;;;;;;;25.53;9.17;;;0.80;99.90;;;;;;4983551;28;20712;-69
2022/01/11 03:20:45;;;;;;;27.87;9.63;;;0.80;99.90;;;;;;4983665;28;20205;-71
2022/01/11 03:23:14;;;;;;;28.33;10.93;;;0.90;99.90;;;;;;4986369;28;20210;-72
2022/01/11 03:25:41;;;;;;;49.73;11.43;;;0.80;99.90;;;;;;4988013;28;20291;-72
2022/01/11 03:28:08;;;;;;;32.73;10.10;;;0.70;99.90;;;;;;4988349;28;20214;-72
2022/01/11 03:30:35;;;;;;;29.00;9.47;;;0.80;99.90;;;;;;4986633;28;20208;-72
2022/01/11 03:33:06;;;;;;;30.80;10.83;;;0.80;99.90;;;;;;4976090;28;20218;-72
2022/01/11 03:35:33;;;;;;;61.23;11.13;;;0.70;99.90;;;;;;4986260;28;20656;-74
2022/01/11 03:38:00;;;;;;;82.40;11.93;;;0.80;99.90;;;;;;4987823;28;20475;-72
2022/01/11 03:40:27;;;;;;;108.23;12.67;;;0.80;99.90;;;;;;4988069;28;20229;-73
2022/01/11 03:42:54;;;;;;;35.73;11.07;;;0.70;99.90;;;;;;4987214;28;20198;-71
2022/01/11 03:45:21;;;;;;;28.90;10.33;;;0.60;99.90;;;;;;4983338;28;20334;-72
2022/01/11 03:47:51;;;;;;;30.83;9.47;;;0.70;99.90;;;;;;4979283;28;20201;-72
2022/01/11 03:50:18;;;;;;;35.03;10.83;;;0.70;99.90;;;;;;4987073;28;20225;-72
2022/01/11 03:52:45;;;;;;;21.00;9.20;;;0.60;99.90;;;;;;4988054;28;20239;-72
2022/01/11 03:55:20;;;;;;;30.10;10.40;;;0.70;99.90;;;;;;4986758;28;20686;-74
2022/01/11 03:57:48;;;;;;;28.27;9.97;;;0.50;99.90;;;;;;4987935;28;20245;-74
2022/01/11 04:00:18;;;;;;;23.60;10.00;;;0.50;99.90;;;;;;4977529;28;20198;-74
2022/01/11 04:02:45;;;;;;;23.37;10.10;;;0.60;99.90;;;;;;4985572;28;20616;-73
2022/01/11 04:05:13;;;;;;;21.30;9.57;;;0.70;99.90;;;;;;4983868;28;20224;-72
2022/01/11 04:07:43;;;;;;;36.23;10.70;;;0.60;99.90;;;;;;4988002;28;20210;-72
2022/01/11 04:10:10;;;;;;;20.67;9.70;;;0.80;99.90;;;;;;4991854;28;20210;-72
2022/01/11 04:12:37;;;;;;;23.23;10.03;;;0.70;99.90;;;;;;4985952;28;20221;-73
2022/01/11 04:15:04;;;;;;;24.30;9.63;;;0.90;99.90;;;;;;4986251;28;20218;-74
2022/01/11 04:17:31;;;;;;;23.23;9.63;;;0.90;99.90;;;;;;4990628;28;20202;-72
2022/01/11 04:19:58;;;;;;;22.63;9.20;;;0.90;99.90;;;;;;4987999;28;20682;-74
2022/01/11 04:22:24;;;;;;;23.93;9.93;;;0.80;99.90;;;;;;4990482;28;20210;-72
2022/01/11 04:24:51;;;;;;;25.83;9.90;;;0.70;99.90;;;;;;4981350;28;20242;-72
2022/01/11 04:27:18;;;;;;;23.40;10.00;;;0.70;99.90;;;;;;4987608;28;20209;-73
2022/01/11 04:29:44;;;;;;;23.00;10.07;;;0.70;99.90;;;;;;4983452;28;20662;-72
2022/01/11 04:32:11;;;;;;;19.67;8.03;;;0.60;99.90;;;;;;4986434;28;20221;-72
2022/01/11 04:34:38;;;;;;;20.67;7.70;;;0.70;99.90;;;;;;4991299;28;20632;-72
2022/01/11 04:37:04;;;;;;;28.50;9.40;;;0.70;99.90;;;;;;4987900;28;20516;-73
2022/01/11 04:39:32;;;;;;;22.30;8.43;;;0.70;99.90;;;;;;4982423;28;20200;-72
2022/01/11 04:41:58;;;;;;;23.60;8.57;;;0.70;99.90;;;;;;4992733;28;20200;-72
2022/01/11 04:44:25;;;;;;;22.23;8.90;;;0.60;99.90;;;;;;4990412;28;20201;-73
2022/01/11 04:46:52;;;;;;;24.50;9.67;;;0.50;99.90;;;;;;4990098;28;20199;-72
2022/01/11 04:49:19;;;;;;;22.00;9.70;;;0.50;99.90;;;;;;4991415;28;20193;-72
2022/01/11 04:51:46;;;;;;;21.50;9.33;;;0.50;99.90;;;;;;4989880;28;20225;-74
2022/01/11 04:54:13;;;;;;;22.23;9.37;;;0.60;99.90;;;;;;4988183;28;20201;-72
2022/01/11 04:56:40;;;;;;;22.10;9.20;;;0.70;99.90;;;;;;4991644;28;20224;-73
2022/01/11 04:59:07;;;;;;;20.37;8.93;;;0.90;99.90;;;;;;4992244;28;20209;-72
2022/01/11 05:01:34;;;;;;;18.43;9.40;;;0.80;99.90;;;;;;4989964;28;20732;-72
2022/01/11 05:04:01;;;;;;;21.97;8.63;;;0.70;99.90;;;;;;4989631;28;20197;-73
2022/01/11 05:06:27;;;;;;;18.60;7.83;;;0.80;99.90;;;;;;4988518;28;20218;-72
2022/01/11 05:08:54;;;;;;;21.07;8.80;;;0.90;99.90;;;;;;4991327;28;20676;-72
2022/01/11 05:11:22;;;;;;;19.40;7.93;;;0.80;99.90;;;;;;4990857;28;20252;-72
2022/01/11 05:13:49;;;;;;;19.03;7.77;;;0.80;99.90;;;;;;4990720;28;20705;-72
2022/01/11 05:16:16;;;;;;;22.07;8.97;;;0.90;99.90;;;;;;4990673;28;20215;-73
2022/01/11 05:18:43;;;;;;;22.17;8.37;;;1.00;99.90;;;;;;4987643;28;20193;-72
2022/01/11 05:21:09;;;;;;;16.07;7.57;;;0.90;99.90;;;;;;4982132;28;20256;-73
2022/01/11 05:23:36;;;;;;;18.40;8.57;;;0.90;99.90;;;;;;4987388;28;20197;-72
2022/01/11 05:26:03;;;;;;;17.47;7.20;;;0.90;99.90;;;;;;4986263;28;20246;-72
2022/01/11 05:28:31;;;;;;;15.80;7.20;;;0.80;99.90;;;;;;4989834;28;20225;-71
2022/01/11 05:30:57;;;;;;;20.83;7.83;;;0.80;99.90;;;;;;4990487;28;20216;-72
2022/01/11 05:33:24;;;;;;;31.27;8.33;;;0.70;99.90;;;;;;4986475;28;20245;-72
2022/01/11 05:35:51;;;;;;;20.20;8.13;;;0.70;99.90;;;;;;4990934;28;20209;-72
2022/01/11 05:38:18;;;;;;;16.50;6.53;;;0.70;99.90;;;;;;4983258;28;20194;-74
2022/01/11 05:40:45;;;;;;;17.60;7.67;;;0.70;99.90;;;;;;4990082;28;20206;-74
2022/01/11 05:43:12;;;;;;;18.27;8.10;;;0.80;99.90;;;;;;4988199;28;20209;-72
2022/01/11 05:45:39;;;;;;;14.83;6.50;;;0.90;99.90;;;;;;4989006;28;20224;-73
2022/01/11 05:48:06;;;;;;;17.30;7.30;;;0.80;99.90;;;;;;4982602;28;20210;-74
2022/01/11 05:50:34;;;;;;;15.50;7.03;;;0.80;99.90;;;;;;4984356;28;20214;-72
2022/01/11 05:53:01;;;;;;;14.43;6.53;;;0.70;99.90;;;;;;4988336;28;20628;-72
2022/01/11 05:55:27;;;;;;;13.73;6.43;;;0.60;99.90;;;;;;4987703;28;20271;-74
2022/01/11 05:57:55;;;;;;;14.63;6.57;;;0.60;99.90;;;;;;4987660;28;20203;-73
2022/01/11 06:00:21;;;;;;;17.67;7.37;;;0.60;99.90;;;;;;4984595;28;20691;-72
2022/01/11 06:02:52;;;;;;;15.33;6.83;;;0.70;99.90;;;;;;4989110;28;20571;-72
2022/01/11 06:05:19;;;;;;;16.87;7.03;;;0.60;99.90;;;;;;4990601;28;20221;-72
2022/01/11 06:07:46;;;;;;;17.63;7.07;;;0.50;99.90;;;;;;4986543;28;20208;-71
2022/01/11 06:10:14;;;;;;;17.57;7.27;;;0.60;99.90;;;;;;4984387;28;20202;-75
2022/01/11 06:12:41;;;;;;;16.40;6.13;;;0.60;99.90;;;;;;4977594;28;20241;-73
2022/01/11 06:15:08;;;;;;;17.70;6.83;;;0.60;99.90;;;;;;4979239;28;21370;-73
2022/01/11 06:17:35;;;;;;;15.30;7.03;;;0.60;99.90;;;;;;4981740;28;20196;-74
2022/01/11 06:20:03;;;;;;;19.70;7.70;;;0.80;99.90;;;;;;4984965;28;20202;-73
2022/01/11 06:22:30;;;;;;;18.57;7.63;;;0.90;99.90;;;;;;4985301;28;20197;-72
2022/01/11 06:25:03;;;;;;;16.70;6.50;;;0.80;99.90;;;;;;4989038;28;20249;-73
2022/01/11 06:27:31;;;;;;;17.67;7.87;;;0.80;99.90;;;;;;4986284;28;20210;-73
2022/01/11 06:29:57;;;;;;;19.33;8.13;;;0.70;99.90;;;;;;4983762;28;20215;-73
2022/01/11 06:32:24;;;;;;;19.10;8.07;;;0.60;99.90;;;;;;4986884;28;20631;-73
2022/01/11 06:34:53;;;;;;;17.10;7.03;;;0.70;99.90;;;;;;4987597;28;20599;-71
2022/01/11 06:37:20;;;;;;;18.57;7.77;;;0.70;99.90;;;;;;4986874;28;20194;-74
2022/01/11 06:39:47;;;;;;;16.90;6.80;;;0.70;99.90;;;;;;4986386;28;20221;-73
2022/01/11 06:42:13;;;;;;;16.37;7.03;;;0.70;99.90;;;;;;4984674;28;20741;-76
2022/01/11 06:44:42;;;;;;;19.97;8.73;;;0.80;99.90;;;;;;4985452;28;20227;-73
2022/01/11 06:47:09;;;;;;;19.93;8.20;;;0.70;99.90;;;;;;4989907;28;20577;-73
2022/01/11 06:49:35;;;;;;;17.60;7.97;;;0.70;99.90;;;;;;4984953;28;20199;-72
2022/01/11 06:52:03;;;;;;;18.23;7.63;;;0.60;99.90;;;;;;4984643;28;20197;-72
2022/01/11 06:54:30;;;;;;;18.43;8.23;;;0.60;99.90;;;;;;4987266;28;20252;-72
2022/01/11 06:56:57;;;;;;;16.27;8.03;;;0.70;99.90;;;;;;4989130;28;20290;-72
2022/01/11 06:59:24;;;;;;;18.70;7.93;;;0.70;99.90;;;;;;4983593;28;20202;-72
2022/01/11 07:01:50;;;;;;;23.37;9.13;;;0.80;99.90;;;;;;4985576;28;20198;-75
2022/01/11 07:04:17;;;;;;;18.47;8.53;;;0.70;99.90;;;;;;4986338;28;20208;-72
2022/01/11 07:06:44;;;;;;;17.03;7.27;;;0.60;99.90;;;;;;4991980;28;20206;-71
2022/01/11 07:09:10;;;;;;;15.10;7.40;;;0.70;99.90;;;;;;4983067;28;20204;-75
2022/01/11 07:11:37;;;;;;;17.73;7.07;;;0.60;99.90;;;;;;4987842;28;20210;-72
2022/01/11 07:14:04;;;;;;;18.93;7.23;;;0.60;99.90;;;;;;4986985;28;20217;-72
2022/01/11 07:16:32;;;;;;;16.07;7.37;;;0.70;99.90;;;;;;4990000;28;20606;-75
2022/01/11 07:18:59;;;;;;;19.87;7.97;;;0.70;99.90;;;;;;4988582;28;20545;-72
2022/01/11 07:21:26;;;;;;;24.97;7.43;;;0.60;99.90;;;;;;4986927;28;20650;-73
2022/01/11 07:23:53;;;;;;;15.63;7.40;;;0.60;99.90;;;;;;4986833;28;20202;-72
2022/01/11 07:26:19;;;;;;;19.47;8.20;;;0.60;99.90;;;;;;4988782;28;20225;-73
2022/01/11 07:28:46;;;;;;;19.40;8.23;;;0.60;99.90;;;;;;4985579;28;20235;-73
2022/01/11 07:31:13;;;;;;;21.40;7.30;;;0.70;99.90;;;;;;4985828;28;20200;-73
2022/01/11 07:33:40;;;;;;;21.80;8.70;;;0.80;99.90;;;;;;4986215;28;20225;-73
2022/01/11 07:36:07;;;;;;;19.90;7.57;;;0.50;99.90;;;;;;4981333;28;20697;-72
2022/01/11 07:38:34;;;;;;;21.53;8.10;;;0.50;99.90;;;;;;4987503;28;20196;-73
2022/01/11 07:41:00;;;;;;;29.43;7.83;;;0.50;99.90;;;;;;4986670;28;20229;-75
2022/01/11 07:43:27;;;;;;;13.90;6.70;;;0.50;99.90;;;;;;4988729;28;20202;-73
2022/01/11 07:45:54;;;;;;;17.00;6.77;;;0.40;99.90;;;;;;4991908;28;20221;-74
2022/01/11 07:48:20;;;;;;;27.33;8.23;;;0.60;99.90;;;;;;4990788;28;20555;-71
2022/01/11 07:50:47;;;;;;;22.20;7.27;;;0.50;99.90;;;;;;4990874;28;20275;-75
2022/01/11 07:53:13;;;;;;;14.10;6.77;;;0.50;99.90;;;;;;4993833;28;20287;-73
2022/01/11 07:55:40;;;;;;;23.23;7.30;;;0.40;99.90;;;;;;4991974;28;20227;-73
2022/01/11 07:58:07;;;;;;;24.10;6.90;;;0.50;99.90;;;;;;4984987;28;20190;-70
2022/01/11 08:00:34;;;;;;;16.17;6.47;;;0.60;99.90;;;;;;4994270;28;20197;-74
2022/01/11 08:03:00;;;;;;;15.73;7.20;;;0.60;99.90;;;;;;4991872;28;20208;-73
2022/01/11 08:05:27;;;;;;;23.47;7.23;;;0.70;99.90;;;;;;4991424;28;20220;-73
2022/01/11 08:07:55;;;;;;;21.80;7.20;;;0.50;99.90;;;;;;4992988;28;20283;-71
2022/01/11 08:10:22;;;;;;;15.27;6.50;;;0.60;99.90;;;;;;4992920;28;20200;-72
2022/01/11 08:12:50;;;;;;;17.73;6.23;;;0.60;99.90;;;;;;4992107;28;20201;-72
2022/01/11 08:15:17;;;;;;;21.63;5.90;;;0.50;99.90;;;;;;4988306;28;20502;-76
2022/01/11 08:17:43;;;;;;;28.27;7.13;;;0.70;99.90;;;;;;4992186;28;20706;-75
2022/01/11 08:20:10;;;;;;;14.70;6.53;;;0.70;99.90;;;;;;4987252;28;20208;-72
2022/01/11 08:22:37;;;;;;;16.23;7.07;;;0.60;99.90;;;;;;4989454;28;20201;-73
2022/01/11 08:25:05;;;;;;;13.77;6.37;;;0.60;99.90;;;;;;4987721;28;20724;-72
2022/01/11 08:27:33;;;;;;;15.77;6.47;;;0.60;99.90;;;;;;5001001;28;20203;-72
2022/01/11 08:30:02;;;;;;;18.13;7.10;;;0.70;99.90;;;;;;4993273;28;20205;-72
2022/01/11 08:32:29;;;;;;;11.67;6.10;;;0.60;99.90;;;;;;4991860;28;20214;-75
2022/01/11 08:34:56;;;;;;;16.57;6.07;;;0.60;99.90;;;;;;4980927;28;20225;-71
2022/01/11 08:37:22;;;;;;;12.70;6.73;;;0.60;99.90;;;;;;4974096;28;20197;-73
2022/01/11 08:39:49;;;;;;;14.07;6.50;;;0.70;99.90;;;;;;4990509;28;20206;-72
2022/01/11 08:42:16;;;;;;;16.03;7.03;;;0.60;99.90;;;;;;4988002;28;20196;-73
2022/01/11 08:44:46;;;;;;;13.50;5.97;;;0.70;99.90;;;;;;4991412;28;20625;-73
2022/01/11 08:47:14;;;;;;;12.97;6.43;;;0.60;99.90;;;;;;4991246;28;20205;-73
2022/01/11 08:49:41;;;;;;;14.43;6.27;;;0.70;99.90;;;;;;4985913;28;20477;-72
2022/01/11 08:52:09;;;;;;;16.27;7.97;;;0.80;99.90;;;;;;4992466;28;20202;-75
2022/01/11 08:54:37;;;;;;;13.90;6.73;;;0.90;99.90;;;;;;4990215;28;20225;-71
2022/01/11 08:57:04;;;;;;;15.87;6.50;;;0.90;99.90;;;;;;4983987;28;20198;-74
2022/01/11 08:59:31;;;;;;;13.00;7.03;;;1.10;99.90;;;;;;4989923;28;20719;-72
2022/01/11 09:02:01;;;;;;;14.23;6.73;;;1.00;99.90;;;;;;4990011;28;20203;-72
2022/01/11 09:04:28;;;;;;;15.37;7.20;;;1.00;99.90;;;;;;4993141;28;20252;-75
2022/01/11 09:06:57;;;;;;;17.47;7.57;;;1.10;99.90;;;;;;4994979;28;20631;-69
2022/01/11 09:09:25;;;;;;;14.60;7.43;;;1.10;99.90;;;;;;4992571;28;20202;-72
2022/01/11 09:11:52;;;;;;;13.20;6.67;;;1.20;99.90;;;;;;4988000;28;20206;-72
2022/01/11 09:14:19;;;;;;;12.37;6.40;;;1.20;99.90;;;;;;4986750;28;20226;-75
2022/01/11 09:16:45;;;;;;;14.07;6.27;;;1.10;99.90;;;;;;4988122;28;20194;-72
2022/01/11 09:19:13;;;;;;;12.70;6.67;;;1.20;99.90;;;;;;4988882;28;20574;-75
2022/01/11 09:21:40;;;;;;;10.77;5.83;;;1.40;99.90;;;;;;4993205;28;20233;-74
2022/01/11 09:24:09;;;;;;;13.20;6.23;;;1.30;99.90;;;;;;4992312;28;20203;-69
2022/01/11 09:26:36;;;;;;;11.47;6.23;;;1.40;99.90;;;;;;4988883;28;20199;-72
2022/01/11 09:29:03;;;;;;;16.93;7.30;;;1.50;99.90;;;;;;4988166;28;20701;-74
2022/01/11 09:31:30;;;;;;;16.73;6.90;;;1.50;99.90;;;;;;4992121;28;20211;-72
2022/01/11 09:33:57;;;;;;;12.40;6.37;;;1.70;99.90;;;;;;4989672;28;20278;-73
2022/01/11 09:36:24;;;;;;;17.37;6.93;;;1.70;99.90;;;;;;4989811;28;20282;-72
2022/01/11 09:38:51;;;;;;;15.47;7.77;;;1.70;99.90;;;;;;4991072;28;20198;-71
2022/01/11 09:41:17;;;;;;;12.70;6.97;;;1.70;99.90;;;;;;4990808;28;20261;-71
2022/01/11 09:43:45;;;;;;;15.13;6.70;;;1.90;99.90;;;;;;4986200;28;20204;-71
2022/01/11 09:46:13;;;;;;;13.13;7.00;;;2.10;99.90;;;;;;4992368;28;20224;-71
2022/01/11 09:48:39;;;;;;;13.50;6.53;;;2.10;99.90;;;;;;4985694;28;20297;-68
2022/01/11 09:51:06;;;;;;;14.47;6.97;;;2.20;99.90;;;;;;4992779;28;20212;-70
2022/01/11 09:53:33;;;;;;;14.13;7.00;;;2.20;99.90;;;;;;4989076;28;20216;-70
2022/01/11 09:56:04;;;;;;;15.10;7.27;;;2.30;99.90;;;;;;4990811;28;20232;-71
2022/01/11 09:58:32;;;;;;;12.70;6.60;;;2.30;99.90;;;;;;4987157;28;20196;-69
2022/01/11 10:00:59;;;;;;;12.83;6.73;;;2.30;99.90;;;;;;4988203;28;20211;-68
2022/01/11 10:03:26;;;;;;;13.50;6.93;;;2.40;99.90;;;;;;4991719;28;20687;-70
2022/01/11 10:05:53;;;;;;;15.03;7.20;;;2.30;99.90;;;;;;4989637;28;20213;-70
2022/01/11 10:08:25;;;;;;;13.60;6.63;;;2.40;99.90;;;;;;4989518;28;20669;-70
2022/01/11 10:10:53;;;;;;;13.27;7.07;;;2.30;99.90;;;;;;4990786;28;20577;-71
2022/01/11 10:13:34;;;;;;;14.90;6.47;;;2.50;99.90;;;;;;4988964;28;20197;-72
2022/01/11 10:16:20;;;;;;;17.57;6.90;;;2.50;99.90;;;;;;4991643;28;20220;-70
2022/01/11 10:18:48;;;;;;;13.00;6.57;;;2.50;99.90;;;;;;4988805;28;20203;-70
2022/01/11 10:21:36;;;;;;;13.30;6.83;;;2.60;99.90;;;;;;4984657;28;20251;-70
2022/01/11 10:24:22;;;;;;;12.97;6.13;;;2.60;99.90;;;;;;4987601;28;20201;-72
2022/01/11 10:26:50;;;;;;;13.50;6.83;;;2.70;99.90;;;;;;4987227;28;20294;-69
2022/01/11 10:29:30;;;;;;;13.80;6.40;;;2.70;99.90;;;;;;4986909;28;20205;-70
2022/01/11 10:32:00;;;;;;;11.00;6.50;;;2.60;99.90;;;;;;4987705;28;20222;-70
2022/01/11 10:34:31;;;;;;;13.67;6.60;;;2.80;99.90;;;;;;4989078;28;20252;-73
2022/01/11 10:37:01;;;;;;;13.77;7.03;;;3.00;99.90;;;;;;4992304;28;20208;-71
2022/01/11 10:39:32;;;;;;;15.47;7.87;;;3.10;99.90;;;;;;4976404;28;20198;-70
2022/01/11 10:42:00;;;;;;;13.90;6.70;;;3.30;99.90;;;;;;4985916;28;20203;-70
2022/01/11 10:44:44;;;;;;;15.33;8.27;;;3.50;99.90;;;;;;4985437;28;20271;-70
2022/01/11 10:47:22;;;;;;;17.87;8.20;;;3.20;99.90;;;;;;4983856;28;20479;-71
2022/01/11 10:49:57;;;;;;;14.63;7.93;;;3.40;99.90;;;;;;4991201;28;20587;-72
2022/01/11 10:52:27;;;;;;;16.53;8.57;;;3.50;99.90;;;;;;5002840;28;20204;-70
2022/01/11 10:54:55;;;;;;;17.87;8.67;;;3.40;99.90;;;;;;4987996;28;20267;-68
2022/01/11 10:57:30;;;;;;;17.37;8.80;;;3.50;99.90;;;;;;4986110;28;20334;-70
2022/01/11 11:00:06;;;;;;;15.90;7.87;;;3.70;99.90;;;;;;4990430;28;20200;-70
2022/01/11 11:02:33;;;;;;;21.37;8.27;;;3.70;99.90;;;;;;4988616;28;20196;-69
2022/01/11 11:05:16;;;;;;;15.60;8.27;;;3.60;99.90;;;;;;4977659;28;20219;-70
2022/01/11 11:07:52;;;;;;;18.57;8.60;;;3.70;99.90;;;;;;4984570;28;20259;-70
2022/01/11 11:10:29;;;;;;;17.97;8.97;;;3.70;99.90;;;;;;4988856;28;20208;-71
2022/01/11 11:12:56;;;;;;;21.40;10.90;;;3.90;99.90;;;;;;4981784;28;20192;-71
2022/01/11 11:15:38;;;;;;;22.00;10.50;;;4.00;99.90;;;;;;4988563;28;20236;-71
2022/01/11 11:18:21;;;;;;;17.70;8.60;;;4.00;99.90;;;;;;4982925;28;20197;-68
2022/01/11 11:20:48;;;;;;;20.07;9.37;;;4.20;99.90;;;;;;4986955;28;20671;-71
2022/01/11 11:23:17;;;;;;;18.90;9.27;;;4.40;99.90;;;;;;4988176;28;20607;-71
2022/01/11 11:25:44;;;;;;;18.43;9.60;;;4.40;99.90;;;;;;4985990;28;20218;-70
2022/01/11 11:28:10;;;;;;;17.70;9.10;;;4.30;99.90;;;;;;4984107;28;20235;-73
2022/01/11 11:30:38;;;;;;;22.00;9.97;;;4.30;99.90;;;;;;4989383;28;20204;-73
2022/01/11 11:33:06;;;;;;;20.70;10.27;;;4.40;99.90;;;;;;4985071;28;20201;-73
2022/01/11 11:35:33;;;;;;;22.53;10.37;;;3.90;99.90;;;;;;4983770;28;20217;-71
2022/01/11 11:38:07;;;;;;;20.47;9.23;;;3.80;99.90;;;;;;4987680;28;20243;-74
2022/01/11 11:40:35;;;;;;;18.63;9.13;;;4.00;99.90;;;;;;4986775;28;20674;-73
2022/01/11 11:43:04;;;;;;;21.27;9.60;;;4.10;99.90;;;;;;4986197;28;20193;-71
2022/01/11 11:45:37;;;;;;;22.17;9.07;;;3.90;99.90;;;;;;4992072;28;20270;-71
2022/01/11 11:48:10;;;;;;;17.40;8.93;;;4.00;99.90;;;;;;4988342;28;20742;-69
2022/01/11 11:50:53;;;;;;;19.00;9.10;;;4.20;99.90;;;;;;4977212;28;20225;-75
2022/01/11 11:53:41;;;;;;;19.53;9.83;;;4.40;99.90;;;;;;4983666;28;20206;-71
2022/01/11 11:56:20;;;;;;;17.67;8.63;;;4.30;99.90;;;;;;4984174;28;20228;-69
2022/01/11 11:58:55;;;;;;;26.20;12.77;;;4.40;99.90;;;;;;4990451;28;20209;-70
2022/01/11 12:01:42;;;;;;;16.77;8.83;;;4.50;99.90;;;;;;4988061;28;20208;-71
2022/01/11 12:04:15;;;;;;;13.80;7.50;;;4.50;99.90;;;;;;4995860;28;20211;-71
2022/01/11 12:06:44;;;;;;;14.63;8.17;;;4.70;99.90;;;;;;4990588;28;20199;-71
2022/01/11 12:09:14;;;;;;;16.63;8.03;;;4.50;99.90;;;;;;4983837;28;20628;-71
2022/01/11 12:11:45;;;;;;;17.17;8.20;;;4.60;99.90;;;;;;4986741;28;20205;-73
2022/01/11 12:14:32;;;;;;;17.30;8.73;;;4.50;99.90;;;;;;4982561;28;20357;-70
2022/01/11 12:17:23;;;;;;;18.80;8.87;;;4.40;99.90;;;;;;4988400;28;20191;-72
2022/01/11 12:19:54;;;;;;;20.37;10.70;;;4.50;99.90;;;;;;4985745;28;20204;-75
2022/01/11 12:22:24;;;;;;;16.23;8.33;;;4.60;99.90;;;;;;4987397;28;20648;-71
2022/01/11 12:24:52;;;;;;;16.60;8.37;;;4.70;99.90;;;;;;4986448;28;21045;-68
2022/01/11 12:27:22;;;;;;;14.63;8.33;;;4.90;99.90;;;;;;4985876;28;20209;-73
2022/01/11 12:30:00;;;;;;;24.90;12.53;;;4.90;99.90;;;;;;4991088;28;20207;-71
2022/01/11 12:32:29;;;;;;;22.03;10.60;;;4.90;99.90;;;;;;4990868;28;20594;-71
2022/01/11 12:35:08;;;;;;;17.97;8.30;;;4.90;99.90;;;;;;4987791;28;20501;-71
2022/01/11 12:37:40;;;;;;;15.43;8.37;;;5.10;99.90;;;;;;4990722;28;20228;-70
2022/01/11 12:40:09;;;;;;;16.07;8.03;;;4.90;99.90;;;;;;4991195;28;20196;-70
2022/01/11 12:42:36;;;;;;;17.03;8.30;;;4.90;99.90;;;;;;4994961;28;20195;-72
2022/01/11 12:47:42;;;;;;;16.03;8.23;;;4.80;99.90;;;;;;4991773;28;20219;-73
2022/01/11 12:50:12;;;;;;;16.37;8.47;;;4.90;99.90;;;;;;4986373;28;20200;-71
2022/01/11 12:52:39;;;;;;;16.27;8.33;;;4.80;99.90;;;;;;4991128;28;20591;-74
2022/01/11 12:55:08;;;;;;;17.00;8.77;;;5.00;99.90;;;;;;4980333;28;20227;-71
2022/01/11 12:57:35;;;;;;;14.73;8.37;;;5.20;99.90;;;;;;4992771;28;20228;-71